createdAt,value
2017-11-05T00:01:25.356Z,36.40
2017-11-05T00:03:51.406Z,36.30
2017-11-05T00:06:17.459Z,35.23
2017-11-05T00:08:43.523Z,34.77
2017-11-05T00:11:09.586Z,37.00
2017-11-05T00:13:36.410Z,34.57
2017-11-05T00:16:02.480Z,35.73
2017-11-05T00:18:29.277Z,34.43
2017-11-05T00:20:55.302Z,34.67
2017-11-05T00:23:21.365Z,34.80
2017-11-05T00:25:48.172Z,32.57
2017-11-05T00:28:14.218Z,31.57
2017-11-05T00:30:40.347Z,32.37
2017-11-05T00:33:07.154Z,32.07
2017-11-05T00:35:33.252Z,32.53
2017-11-05T00:37:59.290Z,30.80
2017-11-05T00:40:25.369Z,32.20
2017-11-05T00:42:52.180Z,30.47
2017-11-05T00:45:18.216Z,33.30
2017-11-05T00:47:44.292Z,32.60
2017-11-05T00:50:10.326Z,32.47
2017-11-05T00:52:36.459Z,31.00
2017-11-05T00:55:02.519Z,33.40
2017-11-05T00:57:28.623Z,30.83
2017-11-05T00:59:54.694Z,34.13
2017-11-05T01:02:20.770Z,31.47
2017-11-05T01:04:46.803Z,31.33
2017-11-05T01:07:12.884Z,33.30
2017-11-05T01:09:38.923Z,30.13
2017-11-05T01:12:04.972Z,31.63
2017-11-05T01:14:31.076Z,28.70
2017-11-05T01:16:57.165Z,30.63
2017-11-05T01:19:23.228Z,30.77
2017-11-05T01:21:49.278Z,27.77
2017-11-05T01:24:15.350Z,31.67
2017-11-05T01:26:41.382Z,31.40
2017-11-05T01:29:08.180Z,30.47
2017-11-05T01:31:34.204Z,29.57
2017-11-05T01:34:00.237Z,29.17
2017-11-05T01:36:26.296Z,33.20
2017-11-05T01:38:53.060Z,31.60
2017-11-05T01:41:19.124Z,31.37
2017-11-05T01:43:45.151Z,30.23
2017-11-05T01:46:11.247Z,28.20
2017-11-05T01:48:37.293Z,28.70
2017-11-05T01:51:03.343Z,28.97
2017-11-05T01:53:29.376Z,30.63
2017-11-05T01:55:55.446Z,30.10
2017-11-05T01:58:21.512Z,29.47
2017-11-05T02:00:47.564Z,31.07
2017-11-05T02:03:14.339Z,30.87
2017-11-05T02:05:40.393Z,29.10
2017-11-05T02:08:06.443Z,29.90
2017-11-05T02:10:32.523Z,29.90
2017-11-05T02:12:58.593Z,26.90
2017-11-05T02:15:24.636Z,27.60
2017-11-05T02:17:51.479Z,26.87
2017-11-05T02:20:18.257Z,28.87
2017-11-05T02:22:44.286Z,28.47
2017-11-05T02:25:10.346Z,28.30
2017-11-05T02:27:36.393Z,27.83
2017-11-05T02:30:02.469Z,30.13
2017-11-05T02:32:28.555Z,28.87
2017-11-05T02:34:54.659Z,31.10
2017-11-05T02:37:20.741Z,30.40
2017-11-05T02:39:46.803Z,30.50
2017-11-05T02:42:12.928Z,28.57
2017-11-05T02:44:38.959Z,29.60
2017-11-05T02:47:05.052Z,31.60
2017-11-05T02:49:31.087Z,31.73
2017-11-05T02:51:57.157Z,30.43
2017-11-05T02:54:23.211Z,31.53
2017-11-05T02:56:49.321Z,30.40
2017-11-05T02:59:16.181Z,30.50
2017-11-05T03:01:42.206Z,30.30
2017-11-05T03:04:08.299Z,30.87
2017-11-05T03:06:35.049Z,29.53
2017-11-05T03:09:01.092Z,31.93
2017-11-05T03:11:27.388Z,31.30
2017-11-05T03:13:53.516Z,32.43
2017-11-05T03:16:19.542Z,30.83
2017-11-05T03:18:45.608Z,32.67
2017-11-05T03:21:11.665Z,31.47
2017-11-05T03:23:37.697Z,29.20
2017-11-05T03:26:03.713Z,32.17
2017-11-05T03:28:29.796Z,29.70
2017-11-05T03:30:55.836Z,30.07
2017-11-05T03:33:21.894Z,30.43
2017-11-05T03:35:47.983Z,32.30
2017-11-05T03:38:14.062Z,29.87
2017-11-05T03:40:40.103Z,31.30
2017-11-05T03:43:06.860Z,30.57
2017-11-05T03:45:32.921Z,31.30
2017-11-05T03:47:58.941Z,30.80
2017-11-05T03:50:24.968Z,30.03
2017-11-05T03:52:51.120Z,29.50
2017-11-05T03:55:17.184Z,27.43
2017-11-05T03:57:43.226Z,29.90
2017-11-05T04:00:09.286Z,30.17
2017-11-05T04:02:35.344Z,27.50
2017-11-05T04:05:02.165Z,27.40
2017-11-05T04:07:28.218Z,28.63
2017-11-05T04:09:55.007Z,30.00
2017-11-05T04:12:21.180Z,28.07
2017-11-05T04:14:47.979Z,28.50
2017-11-05T04:17:14.402Z,29.30
2017-11-05T04:19:40.485Z,27.13
2017-11-05T04:22:06.578Z,28.10
2017-11-05T04:24:32.609Z,27.70
2017-11-05T04:26:58.667Z,29.30
2017-11-05T04:29:25.457Z,27.90
2017-11-05T04:31:52.042Z,29.00
2017-11-05T04:34:18.822Z,28.90
2017-11-05T04:36:45.612Z,28.50
2017-11-05T04:39:11.666Z,26.80
2017-11-05T04:41:38.445Z,30.43
2017-11-05T04:44:04.513Z,27.20
2017-11-05T04:46:30.575Z,29.17
2017-11-05T04:48:56.702Z,29.90
2017-11-05T04:51:22.793Z,28.47
2017-11-05T04:53:49.655Z,30.87
2017-11-05T04:56:15.700Z,29.67
2017-11-05T04:58:41.802Z,29.30
2017-11-05T05:01:08.553Z,29.20
2017-11-05T05:03:34.619Z,28.63
2017-11-05T05:06:00.657Z,29.23
2017-11-05T05:08:26.729Z,29.10
2017-11-05T05:10:52.761Z,31.53
2017-11-05T05:13:18.841Z,27.97
2017-11-05T05:15:44.903Z,30.10
2017-11-05T05:18:10.966Z,29.67
2017-11-05T05:20:37.029Z,27.63
2017-11-05T05:23:03.101Z,29.47
2017-11-05T05:25:29.124Z,29.20
2017-11-05T05:27:55.206Z,28.73
2017-11-05T05:30:21.324Z,28.50
2017-11-05T05:32:47.357Z,32.13
2017-11-05T05:35:13.392Z,31.27
2017-11-05T05:37:40.208Z,30.43
2017-11-05T05:40:06.349Z,27.53
2017-11-05T05:42:32.366Z,29.60
2017-11-05T05:44:58.536Z,30.50
2017-11-05T05:47:25.309Z,30.50
2017-11-05T05:49:51.365Z,28.33
2017-11-05T05:52:17.444Z,30.90
2017-11-05T05:54:43.517Z,29.87
2017-11-05T05:57:09.556Z,32.33
2017-11-05T05:59:36.892Z,31.10
2017-11-05T06:02:02.945Z,32.67
2017-11-05T06:04:28.962Z,29.00
2017-11-05T06:06:55.708Z,31.37
2017-11-05T06:09:22.557Z,30.53
2017-11-05T06:11:49.373Z,29.63
2017-11-05T06:14:15.421Z,31.80
2017-11-05T06:16:41.544Z,29.53
2017-11-05T06:19:08.337Z,30.73
2017-11-05T06:21:34.678Z,29.20
2017-11-05T06:24:00.840Z,27.60
2017-11-05T06:26:27.653Z,29.93
2017-11-05T06:28:53.673Z,29.10
2017-11-05T06:31:19.724Z,26.13
2017-11-05T06:33:45.786Z,28.23
2017-11-05T06:36:11.826Z,28.80
2017-11-05T06:38:37.869Z,30.20
2017-11-05T06:41:03.969Z,29.50
2017-11-05T06:43:30.024Z,27.80
2017-11-05T06:45:56.098Z,25.63
2017-11-05T06:48:22.912Z,27.13
2017-11-05T06:50:49.135Z,26.80
2017-11-05T06:53:15.267Z,26.70
2017-11-05T06:55:41.304Z,24.17
2017-11-05T06:58:07.361Z,26.47
2017-11-05T07:00:33.403Z,26.07
2017-11-05T07:02:59.455Z,26.63
2017-11-05T07:05:25.966Z,25.03
2017-11-05T07:07:52.015Z,24.80
2017-11-05T07:10:18.097Z,25.33
2017-11-05T07:12:44.205Z,23.77
2017-11-05T07:15:10.268Z,23.70
2017-11-05T07:17:36.329Z,23.73
2017-11-05T07:20:02.476Z,26.23
2017-11-05T07:22:28.549Z,24.50
2017-11-05T07:24:54.661Z,25.90
2017-11-05T07:27:20.915Z,23.83
2017-11-05T07:29:47.008Z,23.40
2017-11-05T07:32:13.778Z,24.57
2017-11-05T07:34:39.829Z,24.20
2017-11-05T07:37:05.904Z,25.10
2017-11-05T07:39:32.020Z,24.80
2017-11-05T07:41:58.810Z,23.13
2017-11-05T07:44:24.907Z,23.80
2017-11-05T07:46:50.917Z,24.97
2017-11-05T07:49:16.967Z,21.93
2017-11-05T07:51:43.048Z,23.77
2017-11-05T07:54:09.152Z,23.77
2017-11-05T07:56:35.200Z,22.70
2017-11-05T07:59:01.246Z,23.60
2017-11-05T08:01:27.329Z,22.60
2017-11-05T08:03:53.362Z,23.63
2017-11-05T08:06:19.460Z,25.30
2017-11-05T08:08:45.504Z,22.20
2017-11-05T08:11:11.529Z,22.60
2017-11-05T08:13:37.832Z,23.77
2017-11-05T08:16:03.944Z,22.27
2017-11-05T08:18:30.021Z,23.90
2017-11-05T08:20:56.088Z,24.70
2017-11-05T08:23:22.204Z,24.40
2017-11-05T08:25:49.044Z,24.80
2017-11-05T08:28:15.813Z,24.77
2017-11-05T08:30:41.909Z,24.63
2017-11-05T08:33:07.960Z,22.73
2017-11-05T08:35:33.991Z,23.50
2017-11-05T08:38:00.426Z,24.53
2017-11-05T08:40:26.464Z,24.17
2017-11-05T08:42:53.143Z,24.90
2017-11-05T08:45:19.346Z,23.67
2017-11-05T08:47:45.412Z,25.03
2017-11-05T08:50:12.676Z,23.30
2017-11-05T08:52:38.766Z,25.40
2017-11-05T08:55:04.836Z,23.07
2017-11-05T08:57:30.877Z,24.00
2017-11-05T08:59:56.993Z,25.20
2017-11-05T09:02:23.060Z,24.50
2017-11-05T09:04:49.123Z,27.23
2017-11-05T09:07:15.896Z,25.87
2017-11-05T09:09:41.975Z,27.17
2017-11-05T09:12:08.002Z,27.67
2017-11-05T09:14:34.105Z,30.03
2017-11-05T09:17:00.220Z,28.80
2017-11-05T09:19:26.294Z,31.00
2017-11-05T09:21:53.073Z,31.43
2017-11-05T09:24:19.128Z,28.57
2017-11-05T09:26:45.248Z,32.43
2017-11-05T09:29:11.282Z,34.90
2017-11-05T09:31:37.372Z,36.47
2017-11-05T09:34:03.443Z,32.37
2017-11-05T09:36:29.507Z,31.30
2017-11-05T09:38:55.532Z,33.20
2017-11-05T09:41:21.560Z,31.47
2017-11-05T09:43:47.644Z,31.93
2017-11-05T09:46:13.724Z,28.73
2017-11-05T09:48:39.804Z,40.20
2017-11-05T09:51:06.625Z,33.30
2017-11-05T09:53:32.672Z,40.10
2017-11-05T09:55:59.577Z,67.57
2017-11-05T09:58:25.618Z,44.97
2017-11-05T10:00:51.748Z,32.63
2017-11-05T10:03:17.818Z,32.40
2017-11-05T10:05:43.867Z,33.50
2017-11-05T10:08:09.947Z,34.20
2017-11-05T10:10:36.015Z,36.97
2017-11-05T10:13:02.111Z,35.10
2017-11-05T10:15:28.885Z,42.77
2017-11-05T10:17:54.981Z,50.70
2017-11-05T10:20:22.423Z,70.87
2017-11-05T10:22:48.507Z,57.85
2017-11-05T10:25:14.601Z,38.77
2017-11-05T10:27:40.788Z,37.10
2017-11-05T10:30:06.858Z,98.80
2017-11-05T10:32:32.961Z,48.70
2017-11-05T10:34:58.996Z,32.77
2017-11-05T10:37:27.884Z,32.17
2017-11-05T10:39:54.707Z,31.43
2017-11-05T10:42:20.757Z,31.73
2017-11-05T10:44:47.585Z,31.73
2017-11-05T10:47:14.365Z,31.93
2017-11-05T10:49:40.521Z,31.20
2017-11-05T10:52:06.579Z,32.60
2017-11-05T10:54:32.730Z,30.50
2017-11-05T10:56:59.584Z,30.33
2017-11-05T10:59:25.729Z,31.20
2017-11-05T11:01:51.752Z,32.73
2017-11-05T11:04:17.849Z,31.27
2017-11-05T11:06:44.688Z,32.13
2017-11-05T11:09:11.494Z,34.90
2017-11-05T11:11:38.097Z,33.50
2017-11-05T11:14:04.194Z,31.93
2017-11-05T11:16:30.994Z,31.50
2017-11-05T11:18:57.135Z,32.07
2017-11-05T11:21:23.222Z,32.10
2017-11-05T11:23:49.324Z,31.97
2017-11-05T11:26:16.270Z,31.87
2017-11-05T11:28:42.362Z,32.20
2017-11-05T11:31:08.490Z,31.10
2017-11-05T11:33:34.529Z,33.00
2017-11-05T11:36:00.673Z,32.57
2017-11-05T11:38:27.505Z,31.87
2017-11-05T11:40:53.557Z,32.70
2017-11-05T11:43:19.643Z,32.93
2017-11-05T11:45:45.837Z,32.43
2017-11-05T11:48:11.909Z,33.40
2017-11-05T11:50:38.012Z,32.20
2017-11-05T11:53:04.075Z,34.50
2017-11-05T11:55:30.159Z,32.53
2017-11-05T11:57:56.248Z,33.90
2017-11-05T12:00:22.355Z,35.50
2017-11-05T12:02:49.185Z,34.20
2017-11-05T12:05:15.974Z,34.37
2017-11-05T12:07:42.095Z,34.97
2017-11-05T12:10:08.196Z,35.13
2017-11-05T12:12:35.045Z,32.70
2017-11-05T12:15:01.111Z,34.20
2017-11-05T12:17:27.203Z,33.37
2017-11-05T12:19:53.282Z,37.00
2017-11-05T12:22:19.357Z,36.07
2017-11-05T12:24:45.425Z,33.33
2017-11-05T12:27:11.554Z,32.47
2017-11-05T12:29:38.074Z,34.90
2017-11-05T12:32:04.231Z,33.70
2017-11-05T12:34:30.369Z,32.10
2017-11-05T12:36:56.420Z,35.97
2017-11-05T12:39:22.569Z,32.27
2017-11-05T12:41:48.616Z,32.80
2017-11-05T12:44:14.986Z,33.37
2017-11-05T12:46:41.866Z,33.70
2017-11-05T12:49:07.940Z,32.27
2017-11-05T12:51:33.994Z,32.83
2017-11-05T12:54:00.834Z,35.80
2017-11-05T12:56:27.632Z,35.13
2017-11-05T12:58:53.710Z,34.17
2017-11-05T13:01:19.793Z,32.83
2017-11-05T13:03:45.920Z,34.43
2017-11-05T13:06:11.990Z,33.10
2017-11-05T13:08:38.236Z,35.00
2017-11-05T13:11:04.363Z,35.13
2017-11-05T13:13:30.526Z,34.30
2017-11-05T13:15:56.679Z,34.93
2017-11-05T13:18:23.517Z,34.30
2017-11-05T13:20:49.705Z,35.80
2017-11-05T13:23:15.821Z,35.17
2017-11-05T13:25:42.102Z,34.70
2017-11-05T13:28:08.165Z,35.30
2017-11-05T13:30:34.228Z,36.77
2017-11-05T13:33:00.347Z,36.30
2017-11-05T13:35:26.572Z,36.10
2017-11-05T13:37:52.721Z,34.90
2017-11-05T13:40:18.754Z,38.23
2017-11-05T13:42:44.832Z,35.50
2017-11-05T13:45:10.877Z,36.90
2017-11-05T13:47:36.986Z,36.13
2017-11-05T13:50:03.124Z,34.90
2017-11-05T13:52:29.177Z,37.50
2017-11-05T13:54:55.299Z,35.37
2017-11-05T13:57:21.434Z,38.20
2017-11-05T13:59:47.495Z,34.70
2017-11-05T14:02:14.280Z,34.20
2017-11-05T14:04:40.387Z,35.97
2017-11-05T14:07:06.499Z,37.70
2017-11-05T14:09:32.512Z,37.17
2017-11-05T14:11:58.596Z,35.37
2017-11-05T14:14:24.675Z,38.20
2017-11-05T14:16:50.776Z,37.23
2017-11-05T14:19:17.605Z,34.93
2017-11-05T14:21:43.684Z,35.90
2017-11-05T14:24:09.840Z,36.77
2017-11-05T14:26:35.936Z,36.60
2017-11-05T14:29:02.094Z,37.90
2017-11-05T14:31:28.165Z,38.33
2017-11-05T14:33:55.013Z,34.60
2017-11-05T14:36:21.159Z,36.60
2017-11-05T14:38:47.233Z,37.43
2017-11-05T14:41:15.550Z,37.37
2017-11-05T14:43:41.610Z,39.30
2017-11-05T14:46:07.754Z,36.10
2017-11-05T14:48:33.788Z,34.17
2017-11-05T14:51:00.071Z,35.27
2017-11-05T14:53:26.125Z,37.00
2017-11-05T14:55:52.191Z,37.67
2017-11-05T14:58:18.202Z,35.70
2017-11-05T15:00:44.231Z,35.70
2017-11-05T15:03:10.338Z,37.23
2017-11-05T15:05:36.448Z,40.20
2017-11-05T15:08:02.564Z,39.73
2017-11-05T15:10:28.619Z,37.13
2017-11-05T15:12:54.667Z,37.97
2017-11-05T15:15:21.505Z,37.20
2017-11-05T15:17:47.566Z,36.10
2017-11-05T15:20:13.671Z,38.43
2017-11-05T15:22:40.481Z,36.83
2017-11-05T15:25:06.558Z,37.30
2017-11-05T15:27:32.658Z,36.87
2017-11-05T15:29:59.460Z,37.07
2017-11-05T15:32:25.573Z,38.17
2017-11-05T15:34:51.967Z,40.20
2017-11-05T15:37:18.041Z,37.40
2017-11-05T15:39:44.116Z,37.80
2017-11-05T15:42:10.245Z,40.90
2017-11-05T15:44:37.181Z,37.33
2017-11-05T15:47:03.348Z,39.70
2017-11-05T15:49:30.520Z,40.07
2017-11-05T15:51:56.549Z,38.67
2017-11-05T15:54:22.663Z,40.70
2017-11-05T15:56:48.794Z,40.43
2017-11-05T15:59:14.936Z,38.37
2017-11-05T16:01:41.058Z,39.10
2017-11-05T16:04:07.200Z,40.93
2017-11-05T16:06:33.333Z,41.77
2017-11-05T16:08:59.412Z,41.33
2017-11-05T16:11:25.512Z,40.13
2017-11-05T16:13:52.358Z,40.30
2017-11-05T16:16:19.222Z,39.83
2017-11-05T16:18:45.348Z,38.90
2017-11-05T16:21:11.436Z,41.50
2017-11-05T16:23:37.533Z,38.90
2017-11-05T16:26:03.593Z,39.90
2017-11-05T16:28:29.736Z,38.93
2017-11-05T16:30:55.788Z,40.60
2017-11-05T16:33:21.913Z,38.70
2017-11-05T16:35:47.991Z,40.80
2017-11-05T16:38:14.092Z,39.37
2017-11-05T16:40:40.193Z,39.17
2017-11-05T16:43:06.385Z,41.00
2017-11-05T16:45:33.831Z,40.57
2017-11-05T16:48:00.049Z,39.50
2017-11-05T16:50:26.659Z,43.00
2017-11-05T16:52:53.104Z,39.20
2017-11-05T16:55:19.314Z,39.20
2017-11-05T16:57:45.378Z,40.50
2017-11-05T17:00:11.568Z,40.40
2017-11-05T17:02:38.905Z,41.23
2017-11-05T17:05:05.588Z,42.07
2017-11-05T17:07:32.605Z,41.03
2017-11-05T17:09:58.795Z,41.37
2017-11-05T17:12:25.302Z,38.50
2017-11-05T17:14:52.011Z,43.40
2017-11-05T17:17:18.319Z,40.50
2017-11-05T17:19:45.645Z,39.67
2017-11-05T17:22:12.835Z,41.30
2017-11-05T17:24:40.256Z,44.30
2017-11-05T17:27:06.736Z,42.30
2017-11-05T17:29:32.857Z,41.27
2017-11-05T17:31:59.017Z,42.00
2017-11-05T17:34:25.106Z,43.60
2017-11-05T17:36:51.898Z,42.70
2017-11-05T17:39:17.983Z,41.13
2017-11-05T17:41:44.045Z,45.13
2017-11-05T17:44:10.205Z,46.17
2017-11-05T17:46:36.229Z,43.50
2017-11-05T17:49:02.281Z,44.77
2017-11-05T17:51:28.316Z,44.47
2017-11-05T17:53:54.333Z,46.37
2017-11-05T17:56:20.512Z,46.10
2017-11-05T17:58:46.617Z,47.80
2017-11-05T18:01:12.687Z,48.90
2017-11-05T18:03:38.753Z,44.30
2017-11-05T18:06:04.887Z,46.40
2017-11-05T18:08:30.942Z,44.07
2017-11-05T18:10:57.037Z,47.87
2017-11-05T18:13:23.131Z,46.67
2017-11-05T18:15:49.906Z,48.90
2017-11-05T18:18:15.923Z,48.13
2017-11-05T18:20:41.984Z,47.43
2017-11-05T18:23:08.082Z,48.07
2017-11-05T18:25:34.134Z,49.40
2017-11-05T18:28:00.260Z,47.47
2017-11-05T18:30:27.385Z,48.13
2017-11-05T18:32:53.440Z,48.10
2017-11-05T18:35:19.672Z,51.93
2017-11-05T18:37:45.807Z,49.40
2017-11-05T18:40:11.895Z,51.57
2017-11-05T18:42:37.905Z,51.07
2017-11-05T18:45:04.084Z,51.87
2017-11-05T18:47:30.762Z,47.37
2017-11-05T18:49:56.929Z,53.10
2017-11-05T18:52:23.044Z,48.33
2017-11-05T18:54:49.277Z,43.60
2017-11-05T18:57:15.653Z,39.47
2017-11-05T18:59:43.282Z,29.30
2017-11-05T19:02:09.401Z,11.67
2017-11-05T19:04:35.926Z,8.30
2017-11-05T19:07:02.875Z,5.10
2017-11-05T19:09:29.057Z,3.90
2017-11-05T19:11:55.132Z,3.07
2017-11-05T19:14:21.300Z,2.83
2017-11-05T19:16:47.409Z,2.50
2017-11-05T19:19:13.492Z,2.00
2017-11-05T19:21:39.580Z,2.10
2017-11-05T19:24:05.905Z,2.17
2017-11-05T19:26:32.266Z,1.90
2017-11-05T19:28:58.898Z,2.70
2017-11-05T19:31:25.816Z,2.27
2017-11-05T19:33:51.960Z,2.30
2017-11-05T19:36:18.053Z,1.90
2017-11-05T19:38:44.241Z,2.20
2017-11-05T19:41:10.349Z,2.87
2017-11-05T19:43:37.283Z,2.33
2017-11-05T19:46:04.217Z,2.20
2017-11-05T19:48:30.386Z,2.33
2017-11-05T19:50:56.548Z,2.70
2017-11-05T19:53:22.661Z,2.83
2017-11-05T19:55:49.516Z,3.17
2017-11-05T19:58:15.652Z,3.67
2017-11-05T20:00:41.783Z,3.20
2017-11-05T20:03:07.929Z,3.80
2017-11-05T20:05:34.047Z,3.43
2017-11-05T20:08:00.169Z,4.50
2017-11-05T20:10:26.399Z,4.90
2017-11-05T20:12:52.469Z,5.27
2017-11-05T20:15:18.585Z,5.30
2017-11-05T20:17:45.385Z,4.70
2017-11-05T20:20:11.514Z,5.70
2017-11-05T20:22:37.639Z,5.03
2017-11-05T20:25:05.037Z,4.60
2017-11-05T20:27:31.208Z,4.47
2017-11-05T20:29:57.310Z,4.67
2017-11-05T20:32:23.493Z,4.10
2017-11-05T20:34:49.640Z,4.97
2017-11-05T20:37:15.747Z,4.13
2017-11-05T20:39:41.923Z,3.90
2017-11-05T20:42:08.404Z,3.93
2017-11-05T20:44:34.561Z,4.57
2017-11-05T20:47:00.802Z,3.10
2017-11-05T20:49:27.072Z,3.37
2017-11-05T20:51:53.145Z,2.73
2017-11-05T20:54:19.332Z,3.77
2017-11-05T20:56:45.412Z,3.50
2017-11-05T20:59:12.263Z,5.20
2017-11-05T21:01:38.483Z,3.63
2017-11-05T21:04:04.601Z,3.20
2017-11-05T21:06:31.469Z,4.10
2017-11-05T21:08:57.584Z,3.80
2017-11-05T21:11:24.517Z,4.87
2017-11-05T21:13:51.325Z,4.93
2017-11-05T21:16:18.476Z,5.00
2017-11-05T21:18:44.564Z,4.80
2017-11-05T21:21:10.739Z,5.50
2017-11-05T21:23:36.804Z,5.57
2017-11-05T21:26:03.714Z,5.23
2017-11-05T21:28:29.764Z,5.47
2017-11-05T21:30:56.628Z,5.80
2017-11-05T21:33:23.486Z,5.43
2017-11-05T21:35:49.516Z,5.70
2017-11-05T21:38:15.573Z,6.13
2017-11-05T21:40:41.723Z,4.73
2017-11-05T21:43:07.831Z,5.13
2017-11-05T21:45:33.926Z,5.60
2017-11-05T21:47:59.972Z,6.30
2017-11-05T21:50:26.074Z,5.90
2017-11-05T21:52:52.106Z,5.43
2017-11-05T21:55:18.176Z,5.10
2017-11-05T21:57:44.244Z,6.00
2017-11-05T22:00:10.385Z,5.10
2017-11-05T22:02:36.486Z,5.60
2017-11-05T22:05:02.499Z,5.63
2017-11-05T22:07:29.294Z,5.70
2017-11-05T22:09:55.457Z,7.07
2017-11-05T22:12:22.288Z,5.60
2017-11-05T22:14:48.391Z,6.53
2017-11-05T22:17:14.449Z,6.90
2017-11-05T22:19:40.564Z,6.00
2017-11-05T22:22:06.646Z,6.20
2017-11-05T22:24:32.733Z,5.50
2017-11-05T22:26:59.566Z,7.23
2017-11-05T22:29:25.630Z,5.20
2017-11-05T22:31:51.710Z,6.60
2017-11-05T22:34:17.741Z,5.40
2017-11-05T22:36:43.771Z,5.50
2017-11-05T22:39:09.861Z,5.33
2017-11-05T22:41:35.926Z,5.23
2017-11-05T22:44:02.729Z,5.00
2017-11-05T22:46:28.923Z,5.20
2017-11-05T22:48:54.947Z,5.43
2017-11-05T22:51:21.009Z,5.57
2017-11-05T22:53:47.049Z,5.13
2017-11-05T22:56:13.080Z,6.10
2017-11-05T22:58:39.148Z,5.00
2017-11-05T23:01:05.193Z,5.97
2017-11-05T23:03:31.229Z,5.70
2017-11-05T23:05:57.301Z,5.17
2017-11-05T23:08:24.136Z,6.10
2017-11-05T23:10:50.181Z,5.90
2017-11-05T23:13:16.979Z,5.40
2017-11-05T23:15:43.052Z,7.03
2017-11-05T23:18:09.797Z,6.40
2017-11-05T23:20:36.559Z,8.10
2017-11-05T23:23:02.625Z,8.17
2017-11-05T23:25:28.646Z,8.57
2017-11-05T23:27:54.725Z,9.20
2017-11-05T23:30:20.868Z,8.23
2017-11-05T23:32:47.007Z,9.10
2017-11-05T23:35:13.050Z,9.60
2017-11-05T23:37:39.098Z,10.60
2017-11-05T23:40:05.918Z,11.90
2017-11-05T23:42:32.007Z,12.50
2017-11-05T23:44:58.068Z,20.20
2017-11-05T23:47:24.128Z,22.70
2017-11-05T23:49:50.940Z,24.70
2017-11-05T23:52:16.993Z,22.70
2017-11-05T23:54:43.774Z,24.33
2017-11-05T23:57:09.867Z,23.57
2017-11-05T23:59:36.649Z,26.93
